createdAt,value
2023-04-20T00:01:48.275Z,4.90
2023-04-20T00:04:16.443Z,2.53
2023-04-20T00:06:44.119Z,3.08
2023-04-20T00:09:15.602Z,2.63
2023-04-20T00:11:42.712Z,3.47
2023-04-20T00:14:09.654Z,4.93
2023-04-20T00:16:36.639Z,3.08
2023-04-20T00:19:03.597Z,2.25
2023-04-20T00:21:30.755Z,4.53
2023-04-20T00:23:57.694Z,2.40
2023-04-20T00:26:24.642Z,5.80
2023-04-20T00:28:53.963Z,5.47
2023-04-20T00:31:21.247Z,5.18
2023-04-20T00:33:49.105Z,4.95
2023-04-20T00:36:16.275Z,3.58
2023-04-20T00:38:43.250Z,4.75
2023-04-20T00:41:10.506Z,4.38
2023-04-20T00:43:37.673Z,5.05
2023-04-20T00:46:04.771Z,8.75
2023-04-20T00:48:31.799Z,2.05
2023-04-20T00:50:58.865Z,2.78
2023-04-20T00:53:25.856Z,4.13
2023-04-20T00:55:53.110Z,2.80
2023-04-20T00:58:20.109Z,3.72
2023-04-20T01:00:47.197Z,6.80
2023-04-20T01:03:14.749Z,2.45
2023-04-20T01:05:41.972Z,4.68
2023-04-20T01:08:09.019Z,3.38
2023-04-20T01:10:36.304Z,3.25
2023-04-20T01:13:06.369Z,3.70
2023-04-20T01:15:35.224Z,4.60
2023-04-20T01:18:03.186Z,3.60
2023-04-20T01:20:30.456Z,3.20
2023-04-20T01:22:57.435Z,2.97
2023-04-20T01:25:24.680Z,5.20
2023-04-20T01:27:53.359Z,5.00
2023-04-20T01:30:20.319Z,3.65
2023-04-20T01:32:47.497Z,8.30
2023-04-20T01:35:15.934Z,3.15
2023-04-20T01:37:45.259Z,2.78
2023-04-20T01:40:14.902Z,4.63
2023-04-20T01:42:41.915Z,5.68
2023-04-20T01:45:09.327Z,8.23
2023-04-20T01:47:37.001Z,3.72
2023-04-20T01:50:04.340Z,3.70
2023-04-20T01:52:31.370Z,3.83
2023-04-20T01:54:58.309Z,3.53
2023-04-20T01:57:25.301Z,5.43
2023-04-20T01:59:52.236Z,5.65
2023-04-20T02:02:19.420Z,5.32
2023-04-20T02:04:46.387Z,8.05
2023-04-20T02:07:13.352Z,4.40
2023-04-20T02:09:40.456Z,4.57
2023-04-20T02:12:07.430Z,6.40
2023-04-20T02:14:34.411Z,6.43
2023-04-20T02:17:02.098Z,7.28
2023-04-20T02:19:29.096Z,3.65
2023-04-20T02:21:56.118Z,5.30
2023-04-20T02:24:23.156Z,4.28
2023-04-20T02:26:50.268Z,3.78
2023-04-20T02:29:17.628Z,4.43
2023-04-20T02:31:45.124Z,6.25
2023-04-20T02:34:16.251Z,3.92
2023-04-20T02:36:43.217Z,4.80
2023-04-20T02:39:13.203Z,4.15
2023-04-20T02:41:40.228Z,3.67
2023-04-20T02:44:07.455Z,5.85
2023-04-20T02:46:37.082Z,8.40
2023-04-20T02:49:04.898Z,8.15
2023-04-20T02:51:36.489Z,5.45
2023-04-20T02:54:03.774Z,9.98
2023-04-20T02:56:32.015Z,2.60
2023-04-20T02:59:04.099Z,7.43
2023-04-20T03:01:49.660Z,2.63
2023-04-20T03:04:22.066Z,5.80
2023-04-20T03:06:57.008Z,8.75
2023-04-20T03:09:28.134Z,3.08
2023-04-20T03:12:13.325Z,7.70
2023-04-20T03:14:49.288Z,3.75
2023-04-20T03:17:19.282Z,5.15
2023-04-20T03:19:46.563Z,7.07
2023-04-20T03:22:13.562Z,4.45
2023-04-20T03:24:40.848Z,9.30
2023-04-20T03:27:19.177Z,6.88
2023-04-20T03:30:00.823Z,8.65
2023-04-20T03:32:28.806Z,4.18
2023-04-20T03:34:56.850Z,4.15
2023-04-20T03:37:23.949Z,5.50
2023-04-20T03:39:52.214Z,9.75
2023-04-20T03:42:19.572Z,6.55
2023-04-20T03:44:48.802Z,6.60
2023-04-20T03:47:15.944Z,6.68
2023-04-20T03:49:43.008Z,4.05
2023-04-20T03:52:12.412Z,4.18
2023-04-20T03:54:39.510Z,5.55
2023-04-20T03:57:06.749Z,7.45
2023-04-20T03:59:33.709Z,6.05
2023-04-20T04:02:02.947Z,6.20
2023-04-20T04:04:30.145Z,5.03
2023-04-20T04:06:58.649Z,3.70
2023-04-20T04:09:28.478Z,5.53
2023-04-20T04:11:55.617Z,3.20
2023-04-20T04:14:24.022Z,5.20
2023-04-20T04:16:50.951Z,3.03
2023-04-20T04:19:18.723Z,5.18
2023-04-20T04:21:45.947Z,5.38
2023-04-20T04:24:14.265Z,4.57
2023-04-20T04:27:06.086Z,4.03
2023-04-20T04:29:38.725Z,2.42
2023-04-20T04:32:09.613Z,4.25
2023-04-20T04:34:38.629Z,4.00
2023-04-20T04:37:05.720Z,3.50
2023-04-20T04:42:19.015Z,3.53
2023-04-20T04:44:47.493Z,6.50
2023-04-20T04:47:22.842Z,5.28
2023-04-20T04:49:50.159Z,6.32
2023-04-20T04:52:17.161Z,9.00
2023-04-20T04:54:44.119Z,7.10
2023-04-20T04:57:11.121Z,4.75
2023-04-20T04:59:38.048Z,4.13
2023-04-20T05:02:05.063Z,5.45
2023-04-20T05:04:32.240Z,9.05
2023-04-20T05:06:59.345Z,6.13
2023-04-20T05:09:26.654Z,3.90
2023-04-20T05:11:53.634Z,5.53
2023-04-20T05:14:20.595Z,5.25
2023-04-20T05:16:47.766Z,6.28
2023-04-20T05:19:14.788Z,4.03
2023-04-20T05:21:41.819Z,4.38
2023-04-20T05:24:08.803Z,5.18
2023-04-20T05:26:35.798Z,5.78
2023-04-20T05:29:02.812Z,5.70
2023-04-20T05:31:30.972Z,4.57
2023-04-20T05:33:58.312Z,4.45
2023-04-20T05:36:25.393Z,3.22
2023-04-20T05:38:52.301Z,4.93
2023-04-20T05:41:19.624Z,6.80
2023-04-20T05:43:46.518Z,9.55
2023-04-20T05:46:13.448Z,6.28
2023-04-20T05:48:40.536Z,3.97
2023-04-20T05:51:07.434Z,4.53
2023-04-20T05:53:34.317Z,4.38
2023-04-20T05:56:01.376Z,4.72
2023-04-20T05:58:28.506Z,11.20
2023-04-20T06:00:55.817Z,4.25
2023-04-20T06:03:22.948Z,7.38
2023-04-20T06:05:50.017Z,7.72
2023-04-20T06:08:17.445Z,4.68
2023-04-20T06:10:44.466Z,9.20
2023-04-20T06:13:11.627Z,4.63
2023-04-20T06:15:38.560Z,6.50
2023-04-20T06:18:05.760Z,3.90
2023-04-20T06:20:32.773Z,6.70
2023-04-20T06:22:59.750Z,6.88
2023-04-20T06:25:26.727Z,7.72
2023-04-20T06:27:53.652Z,7.82
2023-04-20T06:30:20.910Z,9.18
2023-04-20T06:32:47.936Z,10.20
2023-04-20T06:35:15.593Z,7.72
2023-04-20T06:37:42.541Z,5.07
2023-04-20T06:40:09.808Z,5.75
2023-04-20T06:42:40.058Z,4.72
2023-04-20T06:45:08.411Z,5.18
2023-04-20T06:47:35.524Z,6.45
2023-04-20T06:50:07.359Z,8.25
2023-04-20T06:52:34.303Z,5.85
2023-04-20T06:55:01.557Z,7.25
2023-04-20T06:57:28.664Z,5.43
2023-04-20T06:59:55.662Z,8.18
2023-04-20T07:02:22.629Z,5.22
2023-04-20T07:04:49.676Z,8.55
2023-04-20T07:07:16.730Z,9.75
2023-04-20T07:09:43.922Z,6.15
2023-04-20T07:12:11.438Z,5.38
2023-04-20T07:14:38.684Z,11.10
2023-04-20T07:17:05.660Z,4.80
2023-04-20T07:19:32.692Z,6.55
2023-04-20T07:21:59.711Z,9.02
2023-04-20T07:24:26.604Z,8.45
2023-04-20T07:26:55.612Z,17.27
2023-04-20T07:29:22.833Z,15.30
2023-04-20T07:31:49.799Z,12.00
2023-04-20T07:34:16.949Z,7.25
2023-04-20T07:36:44.276Z,6.93
2023-04-20T07:39:11.286Z,9.43
2023-04-20T07:41:38.249Z,6.15
2023-04-20T07:44:05.866Z,8.48
2023-04-20T07:46:32.814Z,9.60
2023-04-20T07:48:59.819Z,7.35
2023-04-20T07:51:30.252Z,12.88
2023-04-20T07:53:57.440Z,15.02
2023-04-20T07:56:24.433Z,15.20
2023-04-20T07:58:51.526Z,8.00
2023-04-20T08:01:18.545Z,6.43
2023-04-20T08:03:45.821Z,9.05
2023-04-20T08:06:12.845Z,8.88
2023-04-20T08:08:39.775Z,8.30
2023-04-20T08:11:08.139Z,8.15
2023-04-20T08:13:37.262Z,14.88
2023-04-20T08:16:04.458Z,21.65
2023-04-20T08:18:31.470Z,14.00
2023-04-20T08:20:58.486Z,10.82
2023-04-20T08:23:28.043Z,20.92
2023-04-20T08:25:55.323Z,21.27
2023-04-20T08:30:56.734Z,24.30
2023-04-20T08:33:24.082Z,8.75
2023-04-20T08:35:52.995Z,32.70
2023-04-20T08:38:30.661Z,12.73
2023-04-20T08:41:00.726Z,10.85
2023-04-20T08:43:27.678Z,17.35
2023-04-20T08:45:59.909Z,26.63
2023-04-20T08:48:34.442Z,16.00
2023-04-20T08:51:05.611Z,13.02
2023-04-20T08:53:33.339Z,14.35
2023-04-20T08:56:00.396Z,10.98
2023-04-20T08:58:32.811Z,8.02
2023-04-20T09:01:01.123Z,6.25
2023-04-20T09:03:42.672Z,10.13
2023-04-20T09:06:18.084Z,5.38
2023-04-20T09:08:46.669Z,6.03
2023-04-20T09:11:28.017Z,8.95
2023-04-20T09:14:10.072Z,8.50
2023-04-20T09:16:39.549Z,6.55
2023-04-20T09:19:09.231Z,11.98
2023-04-20T09:21:36.689Z,4.75
2023-04-20T09:24:09.327Z,6.10
2023-04-20T09:26:36.846Z,6.82
2023-04-20T09:29:04.524Z,5.32
2023-04-20T09:31:31.486Z,6.60
2023-04-20T09:34:01.580Z,8.00
2023-04-20T09:36:39.350Z,12.27
2023-04-20T09:39:16.200Z,5.75
2023-04-20T09:41:44.094Z,9.90
2023-04-20T09:44:12.851Z,6.80
2023-04-20T09:46:41.613Z,10.55
2023-04-20T09:49:12.319Z,5.78
2023-04-20T09:51:45.107Z,4.85
2023-04-20T09:54:13.149Z,7.45
2023-04-20T09:56:41.250Z,6.28
2023-04-20T09:59:08.550Z,7.40
2023-04-20T10:01:36.612Z,5.13
2023-04-20T10:04:08.279Z,6.25
2023-04-20T10:06:36.777Z,6.53
2023-04-20T10:09:07.427Z,6.75
2023-04-20T10:11:52.553Z,4.97
2023-04-20T10:14:24.809Z,6.85
2023-04-20T10:17:06.572Z,15.88
2023-04-20T10:19:44.908Z,4.55
2023-04-20T10:22:14.143Z,6.13
2023-04-20T10:24:41.177Z,4.88
2023-04-20T10:27:25.111Z,4.60
2023-04-20T10:29:52.062Z,5.25
2023-04-20T10:32:26.870Z,7.50
2023-04-20T10:35:11.264Z,4.00
2023-04-20T10:37:51.792Z,4.43
2023-04-20T10:40:27.892Z,3.80
2023-04-20T10:42:54.856Z,6.07
2023-04-20T10:45:22.050Z,7.90
2023-04-20T10:47:49.170Z,5.82
2023-04-20T10:50:18.182Z,4.68
2023-04-20T10:52:45.198Z,4.18
2023-04-20T10:55:24.664Z,5.20
2023-04-20T10:57:52.217Z,5.80
2023-04-20T11:00:22.560Z,4.80
2023-04-20T11:02:54.948Z,3.08
2023-04-20T11:05:24.670Z,3.80
2023-04-20T11:07:56.350Z,6.40
2023-04-20T11:10:37.649Z,6.20
2023-04-20T11:13:04.670Z,3.65
2023-04-20T11:15:35.509Z,6.45
2023-04-20T11:18:10.714Z,8.50
2023-04-20T11:20:38.714Z,4.22
2023-04-20T11:23:06.029Z,6.05
2023-04-20T11:25:33.187Z,4.25
2023-04-20T11:28:09.911Z,4.88
2023-04-20T11:30:43.488Z,9.48
2023-04-20T11:33:10.955Z,9.85
2023-04-20T11:35:40.285Z,4.97
2023-04-20T11:38:08.292Z,3.88
2023-04-20T11:40:35.937Z,5.22
2023-04-20T11:43:04.836Z,6.55
2023-04-20T11:45:36.632Z,6.07
2023-04-20T11:48:05.712Z,5.32
2023-04-20T11:50:32.932Z,4.20
2023-04-20T11:52:59.891Z,5.18
2023-04-20T11:55:26.934Z,4.45
2023-04-20T11:57:53.897Z,6.05
2023-04-20T12:00:21.970Z,5.95
2023-04-20T12:02:49.008Z,5.82
2023-04-20T12:05:16.696Z,5.70
2023-04-20T12:07:43.941Z,5.22
2023-04-20T12:10:11.064Z,5.88
2023-04-20T12:12:38.514Z,5.53
2023-04-20T12:15:06.702Z,3.58
2023-04-20T12:17:33.881Z,4.75
2023-04-20T12:20:01.206Z,6.85
2023-04-20T12:22:28.346Z,5.45
2023-04-20T12:24:55.300Z,4.20
2023-04-20T12:27:22.499Z,5.53
2023-04-20T12:29:49.451Z,5.82
2023-04-20T12:32:16.421Z,6.45
2023-04-20T12:34:43.411Z,6.05
2023-04-20T12:37:10.351Z,4.65
2023-04-20T12:39:37.347Z,5.68
2023-04-20T12:42:04.360Z,5.22
2023-04-20T12:44:31.344Z,4.90
2023-04-20T12:46:58.315Z,5.53
2023-04-20T12:49:25.387Z,8.45
2023-04-20T12:51:52.305Z,7.03
2023-04-20T12:54:19.610Z,37.63
2023-04-20T12:56:46.984Z,5.82
2023-04-20T12:59:14.292Z,8.80
2023-04-20T13:01:41.581Z,6.50
2023-04-20T13:04:08.800Z,7.47
2023-04-20T13:06:36.025Z,6.85
2023-04-20T13:09:04.133Z,6.63
2023-04-20T13:11:31.106Z,6.75
2023-04-20T13:13:58.247Z,6.25
2023-04-20T13:16:25.567Z,4.32
2023-04-20T13:18:52.575Z,7.75
2023-04-20T13:21:19.493Z,5.82
2023-04-20T13:23:46.381Z,5.10
2023-04-20T13:26:13.687Z,6.63
2023-04-20T13:28:40.947Z,6.75
2023-04-20T13:31:08.365Z,5.93
2023-04-20T13:33:35.850Z,9.18
2023-04-20T13:36:03.136Z,7.63
2023-04-20T13:38:30.315Z,6.32
2023-04-20T13:40:57.311Z,5.80
2023-04-20T13:43:25.377Z,5.90
2023-04-20T13:45:52.390Z,5.03
2023-04-20T13:48:19.420Z,7.88
2023-04-20T13:50:47.368Z,6.45
2023-04-20T13:53:14.373Z,6.25
2023-04-20T13:55:41.300Z,9.80
2023-04-20T13:58:08.206Z,5.03
2023-04-20T14:00:35.265Z,5.90
2023-04-20T14:03:02.607Z,6.65
2023-04-20T14:05:29.783Z,6.13
2023-04-20T14:07:56.722Z,7.22
2023-04-20T14:10:23.695Z,7.07
2023-04-20T14:12:50.951Z,5.80
2023-04-20T14:15:18.021Z,6.47
2023-04-20T14:17:45.686Z,7.40
2023-04-20T14:20:12.825Z,6.15
2023-04-20T14:22:39.856Z,8.40
2023-04-20T14:25:07.599Z,7.40
2023-04-20T14:27:34.662Z,5.32
2023-04-20T14:30:02.541Z,6.68
2023-04-20T14:32:31.381Z,7.28
2023-04-20T14:34:58.706Z,7.28
2023-04-20T14:37:27.318Z,6.13
2023-04-20T14:39:54.428Z,6.80
2023-04-20T14:42:22.019Z,6.00
2023-04-20T14:44:49.016Z,6.25
2023-04-20T14:47:16.212Z,7.10
2023-04-20T14:49:44.570Z,6.68
2023-04-20T14:52:11.446Z,5.07
2023-04-20T14:54:38.409Z,8.65
2023-04-20T14:57:05.409Z,5.70
2023-04-20T14:59:33.766Z,6.28
2023-04-20T15:02:02.977Z,8.65
2023-04-20T15:04:30.838Z,5.10
2023-04-20T15:06:58.320Z,6.43
2023-04-20T15:09:25.984Z,6.55
2023-04-20T15:11:52.907Z,5.72
2023-04-20T15:14:21.171Z,5.10
2023-04-20T15:16:48.176Z,8.40
2023-04-20T15:19:15.258Z,5.75
2023-04-20T15:21:42.771Z,5.38
2023-04-20T15:24:11.579Z,6.93
2023-04-20T15:26:38.543Z,5.10
2023-04-20T15:29:05.559Z,4.57
2023-04-20T15:31:32.688Z,5.47
2023-04-20T15:34:00.472Z,5.80
2023-04-20T15:36:27.759Z,5.30
2023-04-20T15:38:57.505Z,6.57
2023-04-20T15:41:25.065Z,7.82
2023-04-20T15:43:52.041Z,7.00
2023-04-20T15:46:23.277Z,6.63
2023-04-20T15:48:50.512Z,5.15
2023-04-20T15:51:20.073Z,5.80
2023-04-20T15:53:50.756Z,5.85
2023-04-20T15:56:22.507Z,5.95
2023-04-20T15:58:50.869Z,7.47
2023-04-20T16:01:19.691Z,5.20
2023-04-20T16:03:47.790Z,6.57
2023-04-20T16:06:14.863Z,5.55
2023-04-20T16:08:41.831Z,5.45
2023-04-20T16:11:09.143Z,5.50
2023-04-20T16:13:36.880Z,5.65
2023-04-20T16:16:04.110Z,8.25
2023-04-20T16:18:32.273Z,5.80
2023-04-20T16:20:59.388Z,5.68
2023-04-20T16:23:26.485Z,7.50
2023-04-20T16:25:53.443Z,5.10
2023-04-20T16:28:20.546Z,6.35
2023-04-20T16:30:47.529Z,6.43
2023-04-20T16:33:14.890Z,5.22
2023-04-20T16:35:41.937Z,5.95
2023-04-20T16:38:10.763Z,5.72
2023-04-20T16:40:37.816Z,7.25
2023-04-20T16:43:04.807Z,4.75
2023-04-20T16:45:33.474Z,7.47
2023-04-20T16:48:00.702Z,4.35
2023-04-20T16:50:28.235Z,6.43
2023-04-20T16:52:55.195Z,12.05
2023-04-20T16:55:22.161Z,6.10
2023-04-20T16:57:49.222Z,6.82
2023-04-20T17:00:17.011Z,6.78
2023-04-20T17:02:44.339Z,8.52
2023-04-20T17:05:11.423Z,5.18
2023-04-20T17:07:38.440Z,6.85
2023-04-20T17:10:06.087Z,5.40
2023-04-20T17:12:33.022Z,5.78
2023-04-20T17:15:00.736Z,5.47
2023-04-20T17:17:28.300Z,5.45
2023-04-20T17:19:56.431Z,8.25
2023-04-20T17:22:25.729Z,5.90
2023-04-20T17:24:53.740Z,5.65
2023-04-20T17:27:24.016Z,6.20
2023-04-20T17:29:51.631Z,6.53
2023-04-20T17:32:18.764Z,5.15
2023-04-20T17:34:48.359Z,5.72
2023-04-20T17:37:15.714Z,6.25
2023-04-20T17:39:42.871Z,4.30
2023-04-20T17:42:10.778Z,4.85
2023-04-20T17:44:38.297Z,6.38
2023-04-20T17:47:06.688Z,4.90
2023-04-20T17:49:34.919Z,5.40
2023-04-20T17:52:03.089Z,8.45
2023-04-20T17:54:30.085Z,6.25
2023-04-20T17:56:58.092Z,6.15
2023-04-20T17:59:25.110Z,4.82
2023-04-20T18:01:52.185Z,9.30
2023-04-20T18:04:19.500Z,6.20
2023-04-20T18:06:46.944Z,6.30
2023-04-20T18:09:14.218Z,4.55
2023-04-20T18:11:41.786Z,4.30
2023-04-20T18:14:08.895Z,7.10
2023-04-20T18:16:35.855Z,4.22
2023-04-20T18:19:03.126Z,5.75
2023-04-20T18:21:30.182Z,7.65
2023-04-20T18:23:57.084Z,5.80
2023-04-20T18:26:24.667Z,4.90
2023-04-20T18:28:51.686Z,7.53
2023-04-20T18:31:19.231Z,7.47
2023-04-20T18:33:46.367Z,6.47
2023-04-20T18:36:13.385Z,8.30
2023-04-20T18:38:40.628Z,8.05
2023-04-20T18:41:07.598Z,5.93
2023-04-20T18:43:34.641Z,6.57
2023-04-20T18:46:01.600Z,5.50
2023-04-20T18:48:28.543Z,6.05
2023-04-20T18:50:55.628Z,8.85
2023-04-20T18:53:22.621Z,7.53
2023-04-20T18:55:51.797Z,7.80
2023-04-20T18:58:18.733Z,7.45
2023-04-20T19:00:45.720Z,6.65
2023-04-20T19:03:12.916Z,6.55
2023-04-20T19:05:40.220Z,6.22
2023-04-20T19:08:07.147Z,8.10
2023-04-20T19:10:34.043Z,7.25
2023-04-20T19:13:01.053Z,6.40
2023-04-20T19:15:28.027Z,7.60
2023-04-20T19:17:56.409Z,8.27
2023-04-20T19:20:24.359Z,9.85
2023-04-20T19:22:51.563Z,6.88
2023-04-20T19:25:20.418Z,6.57
2023-04-20T19:27:47.531Z,7.25
2023-04-20T19:30:14.948Z,10.27
2023-04-20T19:32:41.977Z,11.80
2023-04-20T19:35:08.929Z,10.15
2023-04-20T19:37:35.898Z,9.02
2023-04-20T19:40:05.607Z,7.78
2023-04-20T19:42:32.657Z,8.32
2023-04-20T19:44:59.674Z,8.52
2023-04-20T19:47:27.404Z,12.00
2023-04-20T19:49:54.387Z,8.25
2023-04-20T19:52:21.360Z,8.77
2023-04-20T19:54:48.381Z,9.65
2023-04-20T19:57:15.296Z,8.73
2023-04-20T19:59:42.601Z,9.57
2023-04-20T20:02:09.694Z,8.85
2023-04-20T20:04:37.957Z,8.77
2023-04-20T20:07:05.175Z,9.70
2023-04-20T20:09:32.176Z,8.90
2023-04-20T20:12:01.098Z,12.68
2023-04-20T20:14:28.119Z,8.55
2023-04-20T20:16:56.582Z,11.18
2023-04-20T20:19:23.805Z,9.95
2023-04-20T20:21:51.174Z,9.43
2023-04-20T20:24:18.478Z,12.85
2023-04-20T20:26:45.415Z,13.23
2023-04-20T20:29:12.344Z,11.90
2023-04-20T20:31:39.399Z,12.60
2023-04-20T20:34:08.963Z,16.85
2023-04-20T20:36:36.414Z,15.77
2023-04-20T20:39:05.267Z,12.27
2023-04-20T20:41:32.910Z,13.77
2023-04-20T20:43:59.860Z,13.30
2023-04-20T20:46:27.052Z,13.13
2023-04-20T20:48:55.155Z,13.45
2023-04-20T20:51:22.079Z,14.77
2023-04-20T20:53:49.029Z,12.80
2023-04-20T20:56:16.087Z,14.57
2023-04-20T20:58:43.254Z,15.95
2023-04-20T21:01:10.362Z,13.88
2023-04-20T21:03:37.589Z,16.13
2023-04-20T21:06:05.088Z,14.60
2023-04-20T21:08:32.014Z,12.10
2023-04-20T21:10:59.027Z,13.07
2023-04-20T21:13:25.961Z,11.30
2023-04-20T21:15:52.913Z,12.68
2023-04-20T21:18:19.868Z,12.27
2023-04-20T21:20:46.778Z,16.60
2023-04-20T21:23:13.694Z,12.88
2023-04-20T21:25:40.600Z,12.35
2023-04-20T21:28:07.502Z,12.43
2023-04-20T21:30:35.156Z,13.48
2023-04-20T21:33:02.169Z,16.52
2023-04-20T21:35:29.168Z,16.45
2023-04-20T21:37:56.243Z,14.02
2023-04-20T21:40:25.189Z,12.15
2023-04-20T21:42:52.117Z,11.70
2023-04-20T21:45:19.139Z,12.50
2023-04-20T21:47:46.105Z,12.88
2023-04-20T21:50:13.033Z,14.10
2023-04-20T21:52:39.928Z,11.95
2023-04-20T21:55:07.402Z,14.15
2023-04-20T21:57:34.318Z,14.55
2023-04-20T22:00:01.212Z,13.30
2023-04-20T22:02:28.256Z,12.20
2023-04-20T22:04:56.103Z,13.73
2023-04-20T22:07:23.978Z,10.48
2023-04-20T22:09:51.346Z,13.40
2023-04-20T22:12:32.258Z,15.05
2023-04-20T22:15:03.396Z,13.38
2023-04-20T22:17:31.119Z,15.20
2023-04-20T22:19:58.047Z,15.00
2023-04-20T22:22:24.993Z,14.63
2023-04-20T22:24:51.915Z,16.50
2023-04-20T22:27:18.825Z,16.48
2023-04-20T22:29:45.786Z,18.48
2023-04-20T22:32:12.696Z,17.27
2023-04-20T22:34:39.663Z,14.32
2023-04-20T22:37:08.590Z,16.92
2023-04-20T22:39:35.649Z,18.83
2023-04-20T22:42:02.902Z,14.10
2023-04-20T22:44:29.877Z,17.17
2023-04-20T22:46:56.835Z,15.43
2023-04-20T22:49:23.781Z,16.65
2023-04-20T22:51:51.208Z,18.25
2023-04-20T22:54:18.151Z,15.60
2023-04-20T22:56:45.243Z,17.42
2023-04-20T22:59:12.231Z,21.77
2023-04-20T23:01:39.186Z,17.90
2023-04-20T23:04:06.358Z,15.15
2023-04-20T23:06:34.605Z,19.27
2023-04-20T23:09:01.783Z,21.85
2023-04-20T23:11:29.178Z,20.42
2023-04-20T23:13:56.250Z,21.10
2023-04-20T23:16:23.313Z,19.50
2023-04-20T23:18:50.327Z,16.90
2023-04-20T23:21:17.277Z,19.35
2023-04-20T23:23:44.192Z,22.65
2023-04-20T23:26:11.166Z,22.00
2023-04-20T23:28:39.056Z,17.95
2023-04-20T23:31:06.103Z,20.02
2023-04-20T23:33:33.041Z,20.27
2023-04-20T23:35:59.985Z,18.25
2023-04-20T23:38:26.854Z,22.23
2023-04-20T23:40:53.796Z,24.45
2023-04-20T23:43:20.698Z,25.02
2023-04-20T23:45:47.646Z,25.52
2023-04-20T23:48:14.585Z,23.38
2023-04-20T23:50:41.477Z,23.40
2023-04-20T23:53:10.172Z,24.10
2023-04-20T23:55:37.069Z,27.63
2023-04-20T23:58:04.059Z,26.90
